Terminal Aerodrome Forecast
Issued by NWS

Home | Current Version | Previous Version | Graphics & Text | Print | Product List | Glossary On
Versions: 1 2 3 4 5 6 7 8 9 10 11 12 13 14 15
921
FTUS43 KTOP 231720
TAFMHK
TAF
KMHK 231720Z 2318/2418 18012KT P6SM SKC
     FM240000 16007KT P6SM SCT050
     FM241500 18013KT P6SM VCTS SCT060CB=

USA.gov is the U.S. government's official web portal to all federal, state and local government web resources and services.